Airfield :







YOU CAN JOIN US ON...

 
LOGIN :

Register | Disclaimer

   EN    FR    IT 

 









Legend :    VFR   Marginal VFR   IFR   Intensive IFR   Very Intensive IFR
Visi :
Ceiling :
>= 8 km
>= 3000ft
5 to 8 km
1000 to 3000 ft
1500m to 5 km
500 to 1000 ft
800 to 1500m
200 to 500 ft
< 800m
< 200 ft
Symbols :   Thunderstorms  Fog  Heavy snow  Heavy precipitations  Wind > 20 kt






- Airport Elevation : 76 ft
- IATA code : PWM


KPWM - Portland International Jetport

CURRENT METAR :
  • 181351Z 09012KT 10SM SCT200 08/01 A3022 RMK AO2 SLP233 T00830011

EXPIRED METARs :
  • 181251Z 08007KT 10SM BKN200 07/M01 A3023 RMK AO2 SLP236 T00721006
  • 181151Z 06009KT 10SM BKN200 07/00 A3023 RMK AO2 SLP237 T00670000 10067 20022 53016
  • 181051Z 06009KT 10SM BKN200 06/00 A3021 RMK AO2 SLP228 T00560000 $
  • 180951Z 05008KT 10SM BKN200 05/01 A3019 RMK AO2 SLP222 T00500006 $

TAF KPWM
Valid from the 18 at 12:00 until the 19 at 12:00 UTC


181130Z 1812/1912 VRB05KT P6SM SCT150
FM181300 09009G15KT P6SM SCT150
FM182200 10005KT P6SM SCT100 OVC150
KZBW FIR / North America



MET'MAP, your aeronautical weather chart ! - Copyright ORBIFLY December 2007 - Disclaimer

ORBIFLY MET'MAP TEAM :

Programming & Development : Alexandra Zaïnal
Original concept : Baudouin d'Aumeries
Technical & hardware support : Manuel Goepfert
Assistance : Marc-Olivier Méhu




SOURCES & CREDITS :

   NOAA